createdAt,value
2022-11-27T00:01:12.433Z,9.33
2022-11-27T00:03:40.230Z,9.90
2022-11-27T00:06:08.077Z,8.63
2022-11-27T00:08:35.485Z,10.13
2022-11-27T00:11:06.459Z,9.47
2022-11-27T00:13:35.217Z,9.50
2022-11-27T00:16:02.730Z,8.60
2022-11-27T00:18:30.221Z,8.97
2022-11-27T00:20:57.765Z,8.97
2022-11-27T00:23:25.156Z,9.40
2022-11-27T00:25:52.715Z,8.87
2022-11-27T00:28:20.569Z,8.70
2022-11-27T00:30:49.335Z,9.40
2022-11-27T00:33:16.856Z,9.43
2022-11-27T00:35:44.337Z,8.83
2022-11-27T00:38:11.742Z,9.00
2022-11-27T00:40:39.126Z,9.50
2022-11-27T00:43:06.590Z,8.60
2022-11-27T00:45:34.029Z,9.13
2022-11-27T00:48:02.824Z,8.53
2022-11-27T00:50:32.130Z,8.77
2022-11-27T00:52:59.574Z,8.87
2022-11-27T00:55:27.542Z,8.07
2022-11-27T00:57:54.930Z,8.30
2022-11-27T01:00:23.203Z,8.37
2022-11-27T01:02:50.655Z,8.83
2022-11-27T01:05:19.400Z,7.70
2022-11-27T01:07:47.019Z,8.53
2022-11-27T01:10:14.461Z,8.47
2022-11-27T01:12:41.815Z,7.93
2022-11-27T01:15:09.910Z,8.77
2022-11-27T01:17:37.554Z,8.67
2022-11-27T01:20:05.619Z,7.93
2022-11-27T01:22:34.685Z,8.10
2022-11-27T01:25:02.128Z,7.73
2022-11-27T01:27:29.560Z,8.37
2022-11-27T01:29:56.958Z,8.17
2022-11-27T01:32:24.353Z,8.50
2022-11-27T01:34:53.706Z,8.60
2022-11-27T01:37:21.887Z,8.07
2022-11-27T01:39:50.624Z,7.50
2022-11-27T01:42:18.025Z,8.10
2022-11-27T01:44:48.518Z,7.60
2022-11-27T01:47:18.343Z,8.57
2022-11-27T01:49:47.201Z,9.03
2022-11-27T01:52:17.161Z,8.57
2022-11-27T01:54:48.673Z,8.10
2022-11-27T01:57:20.051Z,8.60
2022-11-27T01:59:49.017Z,8.17
2022-11-27T02:02:16.487Z,7.77
2022-11-27T02:04:44.169Z,8.37
2022-11-27T02:07:11.659Z,8.07
2022-11-27T02:09:39.291Z,8.20
2022-11-27T02:12:10.269Z,7.03
2022-11-27T02:14:43.958Z,7.30
2022-11-27T02:17:14.546Z,8.20
2022-11-27T02:19:51.511Z,8.23
2022-11-27T02:22:26.588Z,7.90
2022-11-27T02:24:57.424Z,8.70
2022-11-27T02:27:42.473Z,7.60
2022-11-27T02:30:11.685Z,8.23
2022-11-27T02:32:41.523Z,8.63
2022-11-27T02:35:10.850Z,8.17
2022-11-27T02:37:40.596Z,9.00
2022-11-27T02:40:11.197Z,8.37
2022-11-27T02:42:41.674Z,9.07
2022-11-27T02:45:11.965Z,8.60
2022-11-27T02:47:41.738Z,8.73
2022-11-27T02:50:10.350Z,7.90
2022-11-27T02:52:38.184Z,8.63
2022-11-27T02:55:07.014Z,8.17
2022-11-27T02:57:35.486Z,8.20
2022-11-27T03:00:04.593Z,7.73
2022-11-27T03:02:46.642Z,8.50
2022-11-27T03:05:18.421Z,7.97
2022-11-27T03:07:48.210Z,8.57
2022-11-27T03:10:20.731Z,8.73
2022-11-27T03:12:48.710Z,8.70
2022-11-27T03:15:16.354Z,7.83
2022-11-27T03:17:51.559Z,7.70
2022-11-27T03:20:22.601Z,7.43
2022-11-27T03:22:50.027Z,8.17
2022-11-27T03:25:17.528Z,7.80
2022-11-27T03:27:47.147Z,7.70
2022-11-27T03:30:14.840Z,8.07
2022-11-27T03:32:42.306Z,7.50
2022-11-27T03:35:11.656Z,7.37
2022-11-27T03:37:40.574Z,7.80
2022-11-27T03:40:08.898Z,7.30
2022-11-27T03:42:40.872Z,8.57
2022-11-27T03:45:10.966Z,7.53
2022-11-27T03:47:46.994Z,8.83
2022-11-27T03:50:19.833Z,8.83
2022-11-27T03:52:52.826Z,8.57
2022-11-27T03:55:23.999Z,8.37
2022-11-27T03:57:55.554Z,9.33
2022-11-27T04:00:23.113Z,9.77
2022-11-27T04:02:51.739Z,9.23
2022-11-27T04:05:19.758Z,9.00
2022-11-27T04:07:47.175Z,8.90
2022-11-27T04:10:15.994Z,8.83
2022-11-27T04:12:43.617Z,8.73
2022-11-27T04:15:11.577Z,8.97
2022-11-27T04:17:38.930Z,8.87
2022-11-27T04:20:07.187Z,9.17
2022-11-27T04:22:34.575Z,7.90
2022-11-27T04:25:01.978Z,8.27
2022-11-27T04:27:30.755Z,8.60
2022-11-27T04:29:58.140Z,8.43
2022-11-27T04:32:25.542Z,8.10
2022-11-27T04:34:52.952Z,8.07
2022-11-27T04:37:20.605Z,9.33
2022-11-27T04:39:47.991Z,8.93
2022-11-27T04:42:15.379Z,8.50
2022-11-27T04:44:44.129Z,9.20
2022-11-27T04:47:11.517Z,8.43
2022-11-27T04:49:38.955Z,8.97
2022-11-27T04:52:06.691Z,8.03
2022-11-27T04:54:34.086Z,8.93
2022-11-27T04:57:01.498Z,8.37
2022-11-27T04:59:29.278Z,7.30
2022-11-27T05:01:58.126Z,6.17
2022-11-27T05:04:25.902Z,8.17
2022-11-27T05:06:53.288Z,7.17
2022-11-27T05:09:21.249Z,7.60
2022-11-27T05:11:48.653Z,7.80
2022-11-27T05:14:16.869Z,7.10
2022-11-27T05:16:45.010Z,7.10
2022-11-27T05:19:14.583Z,7.50
2022-11-27T05:21:42.369Z,8.13
2022-11-27T05:24:09.876Z,7.97
2022-11-27T05:26:37.650Z,7.27
2022-11-27T05:29:05.113Z,7.43
2022-11-27T05:31:32.566Z,7.73
2022-11-27T05:34:00.065Z,7.73
2022-11-27T05:36:29.154Z,6.97
2022-11-27T05:38:57.815Z,7.40
2022-11-27T05:41:25.419Z,8.10
2022-11-27T05:43:52.843Z,8.93
2022-11-27T05:46:21.036Z,8.33
2022-11-27T05:48:48.875Z,9.10
2022-11-27T05:51:16.630Z,9.17
2022-11-27T05:53:45.525Z,7.67
2022-11-27T05:56:13.671Z,8.73
2022-11-27T05:58:42.269Z,7.90
2022-11-27T06:01:11.114Z,8.47
2022-11-27T06:03:39.301Z,9.87
2022-11-27T06:06:07.615Z,8.67
2022-11-27T06:08:35.040Z,8.90
2022-11-27T06:11:06.861Z,9.47
2022-11-27T06:13:34.326Z,8.57
2022-11-27T06:16:04.829Z,9.47
2022-11-27T06:18:32.262Z,9.77
2022-11-27T06:21:00.726Z,10.70
2022-11-27T06:23:28.147Z,10.33
2022-11-27T06:25:55.542Z,9.80
2022-11-27T06:28:24.279Z,9.83
2022-11-27T06:30:51.650Z,9.87
2022-11-27T06:33:19.414Z,9.70
2022-11-27T06:35:47.282Z,11.53
2022-11-27T06:38:14.682Z,10.80
2022-11-27T06:40:42.090Z,10.07
2022-11-27T06:43:09.482Z,10.93
2022-11-27T06:45:38.395Z,9.77
2022-11-27T06:48:05.922Z,10.87
2022-11-27T06:50:33.331Z,9.63
2022-11-27T06:53:00.765Z,10.17
2022-11-27T06:55:28.201Z,9.40
2022-11-27T06:57:55.644Z,9.10
2022-11-27T07:00:23.217Z,9.53
2022-11-27T07:02:55.817Z,8.53
2022-11-27T07:05:23.863Z,8.50
2022-11-27T07:07:51.457Z,9.20
2022-11-27T07:10:18.869Z,9.37
2022-11-27T07:12:46.254Z,9.90
2022-11-27T07:15:13.673Z,9.80
2022-11-27T07:17:41.754Z,8.97
2022-11-27T07:20:11.186Z,9.03
2022-11-27T07:22:38.633Z,9.60
2022-11-27T07:25:06.510Z,9.00
2022-11-27T07:27:33.884Z,9.13
2022-11-27T07:30:01.311Z,9.63
2022-11-27T07:32:28.720Z,8.03
2022-11-27T07:34:56.110Z,8.80
2022-11-27T07:37:24.870Z,7.80
2022-11-27T07:40:02.486Z,7.70
2022-11-27T07:42:38.123Z,7.07
2022-11-27T07:45:06.880Z,8.60
2022-11-27T07:47:34.293Z,7.80
2022-11-27T07:50:01.908Z,7.87
2022-11-27T07:52:33.612Z,9.87
2022-11-27T07:55:02.947Z,8.10
2022-11-27T07:57:30.355Z,7.60
2022-11-27T07:59:57.808Z,8.87
2022-11-27T08:02:25.300Z,8.17
2022-11-27T08:04:52.788Z,8.60
2022-11-27T08:07:20.278Z,7.87
2022-11-27T08:09:49.042Z,8.17
2022-11-27T08:12:16.694Z,8.27
2022-11-27T08:14:44.077Z,7.70
2022-11-27T08:17:13.314Z,8.80
2022-11-27T08:19:40.751Z,9.03
2022-11-27T08:22:11.736Z,8.83
2022-11-27T08:24:39.540Z,8.77
2022-11-27T08:27:08.411Z,8.40
2022-11-27T08:29:35.846Z,8.10
2022-11-27T08:32:03.290Z,7.90
2022-11-27T08:34:30.757Z,8.77
2022-11-27T08:36:58.133Z,8.70
2022-11-27T08:39:26.634Z,8.50
2022-11-27T08:41:54.172Z,8.93
2022-11-27T08:44:22.974Z,9.30
2022-11-27T08:46:50.439Z,8.80
2022-11-27T08:49:17.868Z,8.90
2022-11-27T08:51:45.262Z,9.57
2022-11-27T08:54:12.746Z,8.60
2022-11-27T08:56:40.135Z,8.93
2022-11-27T08:59:07.546Z,8.57
2022-11-27T09:01:36.356Z,8.20
2022-11-27T09:04:03.913Z,8.93
2022-11-27T09:06:33.148Z,8.43
2022-11-27T09:09:01.070Z,8.17
2022-11-27T09:11:29.086Z,7.87
2022-11-27T09:13:56.495Z,7.93
2022-11-27T09:16:24.142Z,7.77
2022-11-27T09:18:53.980Z,7.63
2022-11-27T09:21:22.413Z,8.00
2022-11-27T09:23:53.274Z,8.00
2022-11-27T09:26:20.836Z,7.77
2022-11-27T09:28:48.238Z,7.83
2022-11-27T09:31:16.012Z,8.30
2022-11-27T09:33:44.225Z,8.47
2022-11-27T09:36:13.932Z,7.13
2022-11-27T09:38:42.404Z,7.10
2022-11-27T09:41:19.229Z,7.10
2022-11-27T09:43:51.541Z,6.83
2022-11-27T09:46:22.120Z,6.43
2022-11-27T09:48:51.192Z,7.40
2022-11-27T09:51:24.594Z,7.00
2022-11-27T09:53:55.305Z,6.57
2022-11-27T09:56:24.367Z,6.70
2022-11-27T09:58:56.993Z,6.57
2022-11-27T10:01:33.665Z,6.20
2022-11-27T10:04:06.421Z,6.67
2022-11-27T10:06:39.155Z,7.20
2022-11-27T10:09:12.412Z,7.33
2022-11-27T10:11:46.355Z,6.33
2022-11-27T10:14:23.062Z,7.03
2022-11-27T10:16:53.617Z,6.70
2022-11-27T10:19:26.242Z,6.10
2022-11-27T10:21:57.793Z,6.17
2022-11-27T10:24:29.498Z,6.43
2022-11-27T10:26:58.270Z,6.30
2022-11-27T10:29:31.513Z,6.07
2022-11-27T10:32:03.449Z,5.63
2022-11-27T10:34:35.525Z,5.60
2022-11-27T10:37:08.223Z,5.90
2022-11-27T10:39:41.045Z,5.83
2022-11-27T10:42:10.580Z,5.53
2022-11-27T10:44:40.877Z,5.37
2022-11-27T10:47:09.396Z,5.40
2022-11-27T10:49:40.029Z,5.53
2022-11-27T10:52:11.948Z,5.10
2022-11-27T10:54:40.079Z,5.53
2022-11-27T10:57:22.850Z,5.00
2022-11-27T10:59:56.049Z,5.40
2022-11-27T11:02:27.492Z,5.67
2022-11-27T11:05:24.213Z,5.40
2022-11-27T11:07:54.044Z,5.13
2022-11-27T11:10:25.739Z,5.40
2022-11-27T11:13:04.473Z,5.80
2022-11-27T11:15:32.173Z,4.93
2022-11-27T11:18:00.651Z,5.10
2022-11-27T11:20:28.158Z,5.17
2022-11-27T11:22:56.977Z,5.00
2022-11-27T11:25:24.402Z,4.63
2022-11-27T11:27:52.382Z,4.80
2022-11-27T11:30:21.814Z,5.00
2022-11-27T11:32:49.816Z,4.60
2022-11-27T11:35:25.899Z,5.03
2022-11-27T11:37:53.825Z,5.30
2022-11-27T11:40:24.439Z,5.37
2022-11-27T11:42:53.152Z,5.20
2022-11-27T11:45:21.928Z,4.80
2022-11-27T11:47:51.344Z,5.03
2022-11-27T11:50:28.063Z,4.97
2022-11-27T11:52:59.838Z,5.00
2022-11-27T11:55:32.164Z,4.63
2022-11-27T11:58:11.797Z,5.00
2022-11-27T12:00:58.422Z,4.57
2022-11-27T12:03:42.457Z,4.23
2022-11-27T12:06:24.727Z,4.40
2022-11-27T12:08:57.850Z,4.53
2022-11-27T12:11:31.527Z,4.30
2022-11-27T12:14:06.089Z,4.23
2022-11-27T12:16:37.901Z,4.93
2022-11-27T12:19:13.554Z,4.90
2022-11-27T12:21:45.226Z,4.80
2022-11-27T12:24:24.167Z,4.90
2022-11-27T12:26:59.248Z,4.70
2022-11-27T12:29:42.053Z,4.17
2022-11-27T12:32:18.378Z,4.33
2022-11-27T12:34:49.573Z,3.80
2022-11-27T12:37:23.263Z,4.77
2022-11-27T12:39:57.444Z,4.20
2022-11-27T12:42:28.854Z,4.20
2022-11-27T12:44:57.770Z,4.00
2022-11-27T12:47:28.024Z,4.00
2022-11-27T12:49:58.143Z,4.13
2022-11-27T12:52:26.866Z,4.10
2022-11-27T12:54:57.189Z,4.40
2022-11-27T12:57:38.621Z,4.20
2022-11-27T13:00:07.290Z,4.17
2022-11-27T13:02:36.435Z,4.00
2022-11-27T13:05:05.293Z,3.97
2022-11-27T13:07:39.958Z,4.20
2022-11-27T13:10:12.652Z,4.77
2022-11-27T13:12:45.315Z,4.40
2022-11-27T13:15:17.855Z,4.33
2022-11-27T13:17:46.330Z,4.50
2022-11-27T13:20:15.814Z,4.10
2022-11-27T13:22:43.497Z,4.13
2022-11-27T13:25:13.179Z,4.67
2022-11-27T13:27:43.816Z,4.77
2022-11-27T13:30:19.663Z,4.53
2022-11-27T13:32:49.459Z,4.43
2022-11-27T13:35:20.752Z,4.77
2022-11-27T13:37:49.771Z,4.80
2022-11-27T13:40:19.542Z,4.73
2022-11-27T13:42:50.387Z,4.53
2022-11-27T13:45:20.886Z,4.30
2022-11-27T13:47:48.529Z,4.93
2022-11-27T13:50:19.053Z,5.00
2022-11-27T13:52:57.151Z,5.37
2022-11-27T13:55:26.091Z,5.27
2022-11-27T13:57:55.516Z,6.10
2022-11-27T14:00:32.963Z,5.03
2022-11-27T14:03:00.419Z,5.30
2022-11-27T14:05:38.120Z,5.27
2022-11-27T14:08:17.087Z,4.80
2022-11-27T14:10:49.661Z,5.33
2022-11-27T14:13:19.942Z,5.20
2022-11-27T14:16:01.861Z,5.00
2022-11-27T14:18:30.392Z,4.80
2022-11-27T14:20:58.901Z,5.03
2022-11-27T14:23:30.880Z,5.33
2022-11-27T14:26:06.912Z,5.30
2022-11-27T14:28:37.911Z,4.80
2022-11-27T14:31:05.644Z,5.17
2022-11-27T14:33:47.400Z,5.30
2022-11-27T14:36:24.452Z,4.70
2022-11-27T14:38:51.874Z,4.33
2022-11-27T14:41:20.365Z,4.90
2022-11-27T14:43:49.422Z,4.60
2022-11-27T14:46:18.345Z,4.00
2022-11-27T14:48:46.688Z,4.63
2022-11-27T14:51:16.334Z,5.00
2022-11-27T14:53:44.259Z,7.93
2022-11-27T14:56:11.834Z,5.70
2022-11-27T14:58:40.120Z,5.70
2022-11-27T15:01:10.117Z,4.93
2022-11-27T15:03:37.633Z,4.40
2022-11-27T15:06:07.795Z,5.27
2022-11-27T15:08:36.105Z,5.20
2022-11-27T15:11:04.549Z,4.57
2022-11-27T15:13:33.293Z,4.80
2022-11-27T15:16:02.694Z,5.37
2022-11-27T15:18:32.352Z,4.97
2022-11-27T15:21:00.197Z,4.70
2022-11-27T15:23:28.898Z,5.03
2022-11-27T15:26:12.558Z,5.53
2022-11-27T15:28:43.280Z,5.07
2022-11-27T15:31:24.257Z,5.40
2022-11-27T15:34:00.526Z,4.77
2022-11-27T15:36:28.074Z,4.23
2022-11-27T15:39:05.470Z,4.20
2022-11-27T15:41:32.852Z,3.90
2022-11-27T15:44:00.275Z,3.80
2022-11-27T15:46:30.158Z,3.40
2022-11-27T15:48:57.735Z,3.40
2022-11-27T15:51:26.516Z,3.40
2022-11-27T15:53:53.918Z,3.57
2022-11-27T15:56:21.345Z,4.10
2022-11-27T15:58:48.734Z,4.20
2022-11-27T16:01:16.274Z,3.57
2022-11-27T16:03:43.721Z,3.53
2022-11-27T16:06:11.106Z,3.57
2022-11-27T16:08:39.861Z,3.60
2022-11-27T16:11:08.963Z,3.37
2022-11-27T16:13:36.370Z,3.53
2022-11-27T16:16:04.585Z,3.53
2022-11-27T16:18:32.729Z,3.10
2022-11-27T16:21:03.394Z,3.13
2022-11-27T16:23:30.949Z,3.57
2022-11-27T16:26:00.345Z,3.27
2022-11-27T16:28:28.305Z,3.47
2022-11-27T16:30:56.134Z,3.70
2022-11-27T16:33:26.268Z,3.70
2022-11-27T16:35:54.102Z,3.40
2022-11-27T16:38:21.880Z,3.73
2022-11-27T16:40:49.407Z,3.33
2022-11-27T16:43:18.190Z,3.57
2022-11-27T16:45:45.637Z,3.30
2022-11-27T16:48:13.089Z,3.60
2022-11-27T16:50:40.513Z,3.50
2022-11-27T16:53:07.901Z,3.70
2022-11-27T16:55:35.332Z,3.63
2022-11-27T16:58:02.715Z,3.77
2022-11-27T17:00:31.432Z,4.23
2022-11-27T17:02:58.837Z,4.00
2022-11-27T17:05:26.227Z,4.20
2022-11-27T17:07:53.650Z,4.20
2022-11-27T17:10:22.016Z,3.97
2022-11-27T17:12:49.399Z,3.93
2022-11-27T17:15:16.868Z,4.27
2022-11-27T17:17:45.615Z,3.93
2022-11-27T17:20:13.047Z,4.40
2022-11-27T17:22:40.518Z,4.17
2022-11-27T17:25:10.954Z,4.60
2022-11-27T17:27:38.375Z,4.67
2022-11-27T17:30:06.394Z,4.73
2022-11-27T17:32:33.786Z,4.80
2022-11-27T17:35:02.632Z,5.10
2022-11-27T17:37:30.036Z,4.67
2022-11-27T17:39:57.405Z,3.87
2022-11-27T17:42:24.833Z,3.60
2022-11-27T17:44:52.235Z,3.60
2022-11-27T17:47:19.665Z,4.10
2022-11-27T17:49:47.076Z,5.07
2022-11-27T17:52:15.830Z,4.97
2022-11-27T17:54:43.235Z,5.73
2022-11-27T17:57:10.654Z,6.53
2022-11-27T17:59:38.232Z,5.70
2022-11-27T18:02:05.739Z,5.93
2022-11-27T18:04:33.306Z,5.30
2022-11-27T18:07:00.918Z,6.00
2022-11-27T18:09:29.666Z,5.50
2022-11-27T18:11:57.437Z,4.43
2022-11-27T18:14:24.877Z,4.00
2022-11-27T18:16:52.495Z,4.10
2022-11-27T18:19:20.196Z,3.60
2022-11-27T18:21:47.647Z,3.77
2022-11-27T18:24:23.083Z,4.00
2022-11-27T18:27:09.205Z,4.63
2022-11-27T18:29:36.964Z,4.10
2022-11-27T18:32:04.517Z,4.00
2022-11-27T18:34:32.227Z,3.77
2022-11-27T18:37:00.731Z,3.83
2022-11-27T18:39:29.719Z,4.20
2022-11-27T18:41:58.459Z,5.10
2022-11-27T18:44:26.708Z,5.13
2022-11-27T18:46:54.129Z,4.70
2022-11-27T18:49:22.770Z,4.27
2022-11-27T18:51:50.622Z,3.80
2022-11-27T18:54:18.466Z,3.90
2022-11-27T18:56:45.968Z,3.83
2022-11-27T18:59:14.857Z,4.10
2022-11-27T19:01:42.975Z,4.03
2022-11-27T19:04:10.989Z,3.93
2022-11-27T19:06:38.836Z,4.30
2022-11-27T19:09:06.881Z,3.93
2022-11-27T19:11:35.252Z,4.30
2022-11-27T19:14:02.730Z,4.43
2022-11-27T19:16:32.325Z,4.30
2022-11-27T19:19:00.363Z,4.10
2022-11-27T19:21:28.634Z,4.00
2022-11-27T19:23:56.483Z,4.30
2022-11-27T19:26:25.097Z,4.20
2022-11-27T19:28:53.633Z,4.20
2022-11-27T19:31:22.687Z,4.87
2022-11-27T19:33:53.349Z,4.30
2022-11-27T19:36:20.778Z,4.20
2022-11-27T19:38:48.239Z,4.20
2022-11-27T19:41:16.557Z,4.50
2022-11-27T19:43:44.067Z,4.40
2022-11-27T19:46:15.389Z,4.27
2022-11-27T19:48:43.203Z,4.77
2022-11-27T19:51:12.840Z,3.93
2022-11-27T19:53:40.421Z,5.07
2022-11-27T19:56:08.499Z,4.50
2022-11-27T19:58:35.940Z,4.53
2022-11-27T20:01:06.995Z,4.70
2022-11-27T20:03:34.653Z,5.13
2022-11-27T20:06:03.053Z,5.43
2022-11-27T20:08:31.995Z,5.10
2022-11-27T20:10:59.518Z,4.37
2022-11-27T20:13:27.255Z,5.33
2022-11-27T20:15:55.458Z,5.00
2022-11-27T20:18:23.229Z,4.97
2022-11-27T20:20:50.990Z,4.80
2022-11-27T20:23:18.379Z,5.20
2022-11-27T20:25:49.293Z,5.37
2022-11-27T20:28:16.678Z,6.13
2022-11-27T20:30:44.550Z,5.20
2022-11-27T20:33:13.000Z,5.07
2022-11-27T20:35:42.154Z,5.20
2022-11-27T20:38:09.598Z,5.40
2022-11-27T20:40:38.816Z,5.17
2022-11-27T20:43:08.890Z,5.57
2022-11-27T20:45:37.406Z,5.10
2022-11-27T20:48:04.940Z,5.10
2022-11-27T20:50:32.416Z,5.33
2022-11-27T20:52:59.798Z,5.17
2022-11-27T20:55:27.279Z,4.97
2022-11-27T20:57:55.114Z,5.07
2022-11-27T21:00:24.421Z,5.97
2022-11-27T21:02:51.983Z,5.77
2022-11-27T21:05:20.190Z,5.07
2022-11-27T21:07:47.708Z,5.93
2022-11-27T21:10:16.671Z,5.10
2022-11-27T21:12:44.496Z,5.33
2022-11-27T21:15:13.037Z,5.43
2022-11-27T21:17:41.891Z,5.80
2022-11-27T21:20:09.715Z,5.53
2022-11-27T21:22:37.363Z,5.33
2022-11-27T21:25:04.996Z,5.70
2022-11-27T21:27:32.498Z,5.50
2022-11-27T21:29:59.906Z,5.67
2022-11-27T21:32:27.461Z,5.40
2022-11-27T21:34:56.281Z,5.87
2022-11-27T21:37:24.581Z,5.43
2022-11-27T21:39:52.185Z,6.00
2022-11-27T21:42:20.351Z,5.70
2022-11-27T21:44:47.892Z,5.33
2022-11-27T21:47:15.289Z,5.50
2022-11-27T21:49:42.851Z,5.30
2022-11-27T21:52:11.574Z,5.63
2022-11-27T21:54:39.234Z,5.20
2022-11-27T21:57:06.759Z,5.43
2022-11-27T21:59:34.159Z,5.63
2022-11-27T22:02:01.695Z,5.00
2022-11-27T22:04:29.163Z,4.80
2022-11-27T22:06:56.601Z,5.23
2022-11-27T22:09:25.334Z,5.30
2022-11-27T22:11:53.159Z,5.87
2022-11-27T22:14:20.578Z,5.30
2022-11-27T22:16:48.061Z,5.87
2022-11-27T22:19:15.580Z,5.47
2022-11-27T22:21:43.353Z,5.20
2022-11-27T22:24:16.745Z,5.43
2022-11-27T22:26:47.619Z,5.43
2022-11-27T22:29:15.040Z,5.97
2022-11-27T22:31:42.455Z,5.57
2022-11-27T22:34:09.903Z,6.07
2022-11-27T22:36:37.364Z,5.37
2022-11-27T22:39:06.096Z,4.93
2022-11-27T22:41:36.353Z,5.47
2022-11-27T22:44:07.030Z,5.10
2022-11-27T22:46:35.457Z,4.97
2022-11-27T22:49:04.128Z,5.87
2022-11-27T22:51:32.462Z,5.40
2022-11-27T22:53:59.941Z,5.77
2022-11-27T22:56:27.984Z,5.23
2022-11-27T22:59:17.519Z,5.17
2022-11-27T23:01:44.241Z,5.20
2022-11-27T23:04:11.683Z,5.33
2022-11-27T23:06:39.091Z,5.20
2022-11-27T23:09:06.501Z,5.27
2022-11-27T23:11:33.919Z,5.33
2022-11-27T23:14:01.382Z,5.40
2022-11-27T23:16:28.889Z,4.90
2022-11-27T23:18:57.682Z,5.17
2022-11-27T23:21:25.202Z,4.60
2022-11-27T23:23:52.847Z,5.40
2022-11-27T23:26:21.434Z,5.07
2022-11-27T23:28:49.538Z,4.80
2022-11-27T23:31:33.477Z,4.77
2022-11-27T23:34:03.410Z,5.30
2022-11-27T23:36:31.247Z,5.00
2022-11-27T23:39:00.444Z,5.10
2022-11-27T23:41:28.063Z,4.83
2022-11-27T23:43:55.591Z,4.43
2022-11-27T23:46:25.232Z,4.67
2022-11-27T23:48:54.358Z,4.50
2022-11-27T23:51:24.504Z,4.90
2022-11-27T23:53:52.313Z,4.90
2022-11-27T23:56:22.214Z,4.60
2022-11-27T23:58:49.631Z,4.50
